createdAt,value
2023-05-02T04:16:51.887Z,55.00
2023-05-02T04:17:52.869Z,36.00
2023-05-02T04:20:08.335Z,65.00
2023-05-02T04:21:04.466Z,74.00
2023-05-02T04:22:04.353Z,53.00
2023-05-02T04:23:04.344Z,50.00
2023-05-02T04:24:04.365Z,71.00
2023-05-02T04:25:10.855Z,50.00
2023-05-02T04:26:23.777Z,37.00
2023-05-02T04:27:12.444Z,43.00
2023-05-02T04:28:12.013Z,95.00
2023-05-02T04:29:10.853Z,85.00
2023-05-02T04:30:12.048Z,105.00
2023-05-02T04:31:13.716Z,115.00
2023-05-02T04:32:04.235Z,107.00
2023-05-02T04:33:04.294Z,150.00
2023-05-02T04:34:10.770Z,186.00
2023-05-02T04:35:10.801Z,126.00
2023-05-02T04:36:10.727Z,126.00
2023-05-02T04:37:12.160Z,179.00
2023-05-02T04:38:10.741Z,219.00
2023-05-02T04:39:12.164Z,213.00
2023-05-02T04:40:12.184Z,185.00
2023-05-02T04:41:12.200Z,163.00
2023-05-02T04:42:12.204Z,142.00
2023-05-02T04:43:10.696Z,138.00
2023-05-02T04:44:04.112Z,153.00
2023-05-02T04:45:04.111Z,159.00
2023-05-02T04:46:11.697Z,162.00
2023-05-02T04:47:11.725Z,136.00
2023-05-02T04:48:10.732Z,152.00
2023-05-02T04:49:10.605Z,173.00
2023-05-02T04:50:10.617Z,171.00
2023-05-02T04:51:13.452Z,156.00
2023-05-02T04:52:04.026Z,154.00
2023-05-02T04:53:10.564Z,154.00
2023-05-02T04:54:10.574Z,144.00
2023-05-02T04:55:10.896Z,152.00
2023-05-02T04:56:04.000Z,161.00
2023-05-02T04:57:10.524Z,181.00
2023-05-02T04:58:10.521Z,191.00
2023-05-02T04:59:10.566Z,195.00
2023-05-02T05:00:10.900Z,209.00
2023-05-02T05:01:27.080Z,211.00
2023-05-02T05:02:04.057Z,227.00
2023-05-02T05:03:10.690Z,207.00
2023-05-02T05:04:10.685Z,195.00
2023-05-02T05:05:03.950Z,160.00
2023-05-02T05:06:03.923Z,141.00
2023-05-02T05:07:11.442Z,141.00
2023-05-02T05:08:12.021Z,139.00
2023-05-02T05:09:10.398Z,147.00
2023-05-02T05:10:10.389Z,145.00
2023-05-02T05:11:17.530Z,149.00
2023-05-02T05:12:10.384Z,156.00
2023-05-02T05:13:10.348Z,175.00
2023-05-02T05:14:11.628Z,214.00
2023-05-02T05:15:10.341Z,230.00
2023-05-02T05:16:13.415Z,223.00
2023-05-02T05:17:10.276Z,214.00
2023-05-02T05:18:10.327Z,173.00
2023-05-02T05:19:11.844Z,174.00
2023-05-02T05:20:03.738Z,178.00
2023-05-02T05:21:11.745Z,159.00
2023-05-02T05:22:10.234Z,185.00
2023-05-02T05:24:13.960Z,237.00
2023-05-02T05:25:21.481Z,217.00
2023-05-02T05:26:23.377Z,241.00
2023-05-02T05:27:21.466Z,239.00
2023-05-02T05:28:21.449Z,250.00
2023-05-02T05:29:21.404Z,245.00
2023-05-02T05:30:21.662Z,245.00
2023-05-02T05:31:33.283Z,259.00
2023-05-02T05:32:15.027Z,265.00
2023-05-02T05:33:14.964Z,247.00
2023-05-02T05:34:21.670Z,250.00
2023-05-02T05:35:14.832Z,290.00
2023-05-02T05:36:15.661Z,339.00
2023-05-02T05:37:14.813Z,411.00
2023-05-02T05:38:14.799Z,461.00
2023-05-02T05:39:14.779Z,443.00
2023-05-02T05:40:21.630Z,445.00
2023-05-02T05:41:32.058Z,575.00
2023-05-02T05:43:25.342Z,719.00
2023-05-02T05:44:26.328Z,771.00
2023-05-02T05:45:36.521Z,699.00
2023-05-02T05:46:33.917Z,648.00
2023-05-02T05:47:33.063Z,582.00
2023-05-02T05:48:34.461Z,587.00
2023-05-02T05:49:32.796Z,748.00
2023-05-02T05:50:54.265Z,830.00
2023-05-02T05:52:45.914Z,652.00
2023-05-02T05:53:38.369Z,616.00
2023-05-02T05:54:38.280Z,582.00
2023-05-02T05:56:50.708Z,935.00
2023-05-02T05:57:59.429Z,818.00
2023-05-02T05:58:59.853Z,901.00
2023-05-02T05:59:51.682Z,1027.00
2023-05-02T06:03:41.922Z,1431.00
2023-05-02T06:04:31.928Z,1504.00
2023-05-02T06:07:14.192Z,926.00
2023-05-02T06:07:54.187Z,1064.00
2023-05-02T06:09:00.732Z,873.00
2023-05-02T06:09:55.253Z,734.00
2023-05-02T06:12:42.217Z,679.00
2023-05-02T06:15:03.719Z,602.00
2023-05-02T06:17:11.816Z,556.00
2023-05-02T06:18:12.827Z,578.00
2023-05-02T06:20:38.120Z,468.00
2023-05-02T06:21:24.902Z,483.00
2023-05-02T06:22:24.828Z,456.00
2023-05-02T06:34:14.790Z,680.00
2023-05-02T06:38:57.748Z,860.00
2023-05-02T06:41:17.284Z,987.00
2023-05-02T06:42:12.399Z,952.00
2023-05-02T06:48:51.573Z,1570.00
2023-05-02T06:55:55.875Z,2135.00
2023-05-02T06:58:23.425Z,2016.00
2023-05-02T07:00:40.479Z,2285.00
2023-05-02T07:04:07.330Z,2728.00
2023-05-02T07:15:58.292Z,3129.00
2023-05-02T07:16:59.446Z,3116.00
2023-05-02T07:17:45.095Z,2823.00
2023-05-02T07:18:58.524Z,2996.00
2023-05-02T07:19:51.248Z,3986.00
2023-05-02T07:20:59.759Z,4064.00
2023-05-02T07:21:58.892Z,3758.00
2023-05-02T07:22:59.146Z,4048.00
2023-05-02T07:23:44.977Z,3527.00
2023-05-02T07:24:45.981Z,3135.00
2023-05-02T07:25:44.957Z,2446.00
2023-05-02T07:26:44.965Z,2695.00
2023-05-02T07:27:44.961Z,3371.00
2023-05-02T07:28:44.931Z,3949.00
2023-05-02T07:48:45.098Z,1295.00
2023-05-02T07:49:53.016Z,1429.00
2023-05-02T07:52:14.121Z,1182.00
2023-05-02T07:53:04.599Z,1101.00
2023-05-02T07:54:04.653Z,1158.00
2023-05-02T07:55:13.391Z,1259.00
2023-05-02T07:56:12.844Z,1377.00
2023-05-02T07:57:12.829Z,1186.00
2023-05-02T07:58:04.545Z,1338.00
2023-05-02T07:59:11.237Z,1825.00
2023-05-02T08:00:11.808Z,2986.00
2023-05-02T08:01:23.905Z,4331.00
2023-05-02T08:02:11.158Z,4288.00
2023-05-02T08:06:36.700Z,2537.00
2023-05-02T08:07:44.297Z,2008.00
2023-05-02T08:08:43.918Z,2569.00
2023-05-02T08:09:43.887Z,3235.00
2023-05-02T08:10:43.818Z,3362.00
2023-05-02T08:11:55.858Z,4078.00
2023-05-02T08:13:57.239Z,2987.00
2023-05-02T08:14:49.275Z,3567.00
2023-05-02T08:15:56.759Z,3047.00
2023-05-02T08:16:56.730Z,1969.00
2023-05-02T08:17:49.393Z,1268.00
2023-05-02T08:18:56.003Z,1221.00
2023-05-02T08:19:56.986Z,1406.00
2023-05-02T08:20:55.903Z,1048.00
2023-05-02T08:21:56.031Z,1017.00
2023-05-02T08:22:57.950Z,794.00
2023-05-02T08:23:55.957Z,1478.00
2023-05-02T08:24:49.175Z,1619.00
2023-05-02T08:25:49.172Z,1763.00
2023-05-02T08:27:07.434Z,2759.00
2023-05-02T08:27:49.174Z,2798.00
2023-05-02T08:28:49.154Z,2570.00
2023-05-02T08:29:49.130Z,4119.00
2023-05-02T08:30:55.750Z,4015.00
2023-05-02T08:31:56.939Z,4692.00
2023-05-02T08:32:55.804Z,6031.00
2023-05-02T08:33:55.492Z,6197.00
2023-05-02T08:34:55.820Z,4946.00
2023-05-02T08:35:58.440Z,2845.00
2023-05-02T08:36:58.355Z,2735.00
2023-05-02T08:37:55.216Z,4061.00
2023-05-02T08:38:55.787Z,4877.00
2023-05-02T08:39:55.273Z,4530.00
2023-05-02T08:41:03.056Z,3928.00
2023-05-02T08:41:49.005Z,3486.00
2023-05-02T08:42:57.556Z,3464.00
2023-05-02T08:43:55.494Z,3763.00
2023-05-02T08:44:56.675Z,3624.00
2023-05-02T08:47:02.322Z,2067.00
2023-05-02T08:48:03.317Z,1923.00
2023-05-02T08:49:03.231Z,2076.00
2023-05-02T08:50:11.250Z,1923.00
2023-05-02T08:51:14.989Z,2289.00
2023-05-02T08:52:09.740Z,2787.00
2023-05-02T08:53:11.282Z,3284.00
2023-05-02T08:54:03.224Z,3142.00
2023-05-02T08:55:03.292Z,3570.00
2023-05-02T08:56:32.839Z,3384.00
2023-05-02T08:57:09.717Z,3464.00
2023-05-02T08:58:29.354Z,3501.00
2023-05-02T08:59:10.872Z,3328.00
2023-05-02T09:00:10.876Z,3103.00
2023-05-02T09:01:13.901Z,2548.00
2023-05-02T09:02:09.931Z,2936.00
2023-05-02T09:03:03.151Z,4571.00
2023-05-02T09:04:09.606Z,3256.00
2023-05-02T09:05:10.934Z,2474.00
2023-05-02T09:06:15.626Z,3252.00
2023-05-02T09:07:03.038Z,3517.00
2023-05-02T09:08:03.031Z,3864.00
2023-05-02T09:09:09.586Z,4615.00
2023-05-02T09:10:11.503Z,5058.00
2023-05-02T09:11:02.992Z,5206.00
2023-05-02T09:12:10.998Z,5671.00
2023-05-02T09:13:02.965Z,5658.00
2023-05-02T09:14:14.102Z,5584.00
2023-05-02T09:15:03.396Z,5902.00
2023-05-02T09:16:09.829Z,5736.00
2023-05-02T09:17:11.116Z,5625.00
2023-05-02T09:18:09.720Z,5980.00
2023-05-02T09:19:09.575Z,6237.00
2023-05-02T09:20:02.899Z,6118.00
2023-05-02T09:21:09.520Z,6447.00
2023-05-02T09:22:09.501Z,6299.00
2023-05-02T09:23:09.384Z,6085.00
2023-05-02T09:24:05.736Z,6037.00
2023-05-02T09:25:09.463Z,6370.00
2023-05-02T09:26:10.650Z,6473.00
2023-05-02T09:27:17.475Z,6116.00
2023-05-02T09:28:10.716Z,5232.00
2023-05-02T09:29:09.333Z,5145.00
2023-05-02T09:30:11.211Z,4585.00
2023-05-02T09:31:13.528Z,4375.00
2023-05-02T09:32:11.204Z,4068.00
2023-05-02T09:33:09.353Z,3887.00
2023-05-02T09:34:10.831Z,3983.00
2023-05-02T09:35:10.056Z,3668.00
2023-05-02T09:36:11.820Z,3845.00
2023-05-02T09:37:09.505Z,5119.00
2023-05-02T09:38:02.905Z,5216.00
2023-05-02T09:39:02.664Z,4361.00
2023-05-02T09:40:11.340Z,4559.00
2023-05-02T09:41:10.895Z,5144.00
2023-05-02T09:43:42.814Z,4629.00
2023-05-02T09:47:29.549Z,3918.00
2023-05-02T09:48:25.540Z,4126.00
2023-05-02T09:49:25.526Z,3807.00
2023-05-02T09:50:25.725Z,3670.00
2023-05-02T09:52:37.544Z,3513.00
2023-05-02T09:55:09.429Z,3466.00
2023-05-02T09:58:41.170Z,3450.00
2023-05-02T10:01:15.225Z,3378.00
2023-05-02T10:02:05.025Z,3196.00
2023-05-02T10:03:06.980Z,3453.00
2023-05-02T10:04:08.501Z,4154.00
2023-05-02T10:05:05.944Z,3922.00
2023-05-02T10:06:26.294Z,3353.00
2023-05-02T10:08:24.255Z,2622.00
2023-05-02T10:09:16.586Z,2618.00
2023-05-02T10:10:13.094Z,2548.00
2023-05-02T10:11:13.096Z,2527.00
2023-05-02T10:12:19.609Z,2611.00
2023-05-02T10:13:19.634Z,2742.00
2023-05-02T10:14:19.683Z,2788.00
2023-05-02T10:15:20.665Z,2823.00
2023-05-02T10:16:31.245Z,2907.00
2023-05-02T10:17:13.028Z,3025.00
2023-05-02T10:18:19.645Z,3120.00
2023-05-02T10:19:19.627Z,3220.00
2023-05-02T10:20:20.956Z,3384.00
2023-05-02T10:21:26.009Z,3433.00
2023-05-02T10:22:20.996Z,3490.00
2023-05-02T10:23:19.620Z,3541.00
2023-05-02T10:24:21.032Z,3684.00
2023-05-02T10:25:12.998Z,3705.00
2023-05-02T10:27:32.010Z,3768.00
2023-05-02T10:28:30.684Z,3803.00
2023-05-02T10:29:30.660Z,3768.00
2023-05-02T10:30:33.089Z,3668.00
2023-05-02T10:31:38.312Z,3559.00
2023-05-02T10:32:31.675Z,3621.00
2023-05-02T10:33:30.623Z,3695.00
2023-05-02T10:34:33.178Z,3955.00
2023-05-02T10:35:30.659Z,3996.00
2023-05-02T10:36:42.285Z,4127.00
2023-05-02T10:38:34.512Z,3760.00
2023-05-02T10:39:43.579Z,4010.00
2023-05-02T10:40:43.805Z,3660.00
2023-05-02T10:41:42.148Z,3517.00
2023-05-02T10:42:42.522Z,3347.00
2023-05-02T10:43:41.980Z,3254.00
2023-05-02T10:44:43.636Z,2695.00
2023-05-02T10:45:41.950Z,2097.00
2023-05-02T10:46:59.130Z,2007.00
2023-05-02T10:47:42.108Z,2277.00
2023-05-02T10:48:43.292Z,2361.00
2023-05-02T10:49:42.076Z,2646.00
2023-05-02T10:50:35.329Z,2917.00
2023-05-02T10:51:46.251Z,3214.00
2023-05-02T10:52:35.372Z,3529.00
2023-05-02T10:53:41.891Z,3702.00
2023-05-02T10:54:43.253Z,3945.00
2023-05-02T10:55:41.844Z,3925.00
2023-05-02T10:57:01.824Z,3874.00
2023-05-02T10:57:35.265Z,4223.00
2023-05-02T10:58:43.300Z,5238.00
2023-05-02T10:59:41.802Z,5583.00
2023-05-02T11:00:41.825Z,5218.00
2023-05-02T11:01:50.916Z,4914.00
2023-05-02T11:02:43.513Z,4762.00
2023-05-02T11:03:41.864Z,4870.00
2023-05-02T11:04:43.405Z,5196.00
2023-05-02T11:05:41.817Z,5214.00
2023-05-02T11:06:44.518Z,5162.00
2023-05-02T11:07:41.793Z,4776.00
2023-05-02T11:08:42.994Z,4340.00
2023-05-02T11:09:41.732Z,3739.00
2023-05-02T11:10:43.009Z,3661.00
2023-05-02T11:11:43.491Z,4463.00
2023-05-02T11:12:43.049Z,4478.00
2023-05-02T11:13:41.634Z,4754.00
2023-05-02T11:14:41.652Z,5359.00
2023-05-02T11:15:43.110Z,6477.00
2023-05-02T11:16:43.171Z,6850.00
2023-05-02T11:17:41.659Z,7382.00
2023-05-02T11:18:41.603Z,6878.00
2023-05-02T11:26:19.933Z,4799.00
2023-05-02T11:27:23.634Z,4712.00
2023-05-02T11:30:37.254Z,7244.00
2023-05-02T11:31:29.608Z,7427.00
2023-05-02T11:34:51.616Z,5194.00
2023-05-02T11:36:00.696Z,5856.00
2023-05-02T11:37:25.333Z,4674.00
2023-05-02T11:44:35.939Z,6384.00
2023-05-02T11:45:36.937Z,6404.00
2023-05-02T11:47:47.528Z,6854.00
2023-05-02T11:48:56.561Z,6513.00
2023-05-02T11:49:54.987Z,6495.00
2023-05-02T11:50:56.590Z,7210.00
2023-05-02T11:51:48.425Z,7748.00
2023-05-02T11:52:54.997Z,12953.00
2023-05-02T11:53:56.607Z,8345.00
2023-05-02T11:54:56.638Z,9416.00
2023-05-02T11:55:56.667Z,9620.00
2023-05-02T11:56:56.173Z,9386.00
2023-05-02T11:57:56.188Z,6989.00
2023-05-02T11:58:56.208Z,5276.00
2023-05-02T11:59:56.261Z,7242.00
2023-05-02T12:00:55.120Z,13378.00
2023-05-02T12:01:56.248Z,12655.00
2023-05-02T12:02:54.941Z,12274.00
2023-05-02T12:03:56.309Z,9586.00
2023-05-02T12:04:56.131Z,7427.00
2023-05-02T12:05:56.387Z,6036.00
2023-05-02T12:06:54.892Z,6232.00
2023-05-02T12:07:56.347Z,5786.00
2023-05-02T12:08:54.808Z,5546.00
2023-05-02T12:09:56.364Z,5074.00
2023-05-02T12:11:04.635Z,4793.00
2023-05-02T12:11:56.408Z,3862.00
2023-05-02T12:12:54.796Z,2886.00
2023-05-02T12:13:59.317Z,2374.00
2023-05-02T12:14:54.726Z,2303.00
2023-05-02T12:15:56.092Z,2219.00
2023-05-02T12:16:54.753Z,2412.00
2023-05-02T12:17:56.034Z,3070.00
2023-05-02T12:18:54.726Z,3796.00
2023-05-02T12:19:56.045Z,4300.00
2023-05-02T12:21:04.696Z,4158.00
2023-05-02T12:21:54.661Z,6499.00
2023-05-02T12:22:56.128Z,7726.00
2023-05-02T12:23:54.983Z,8030.00
2023-05-02T12:24:56.163Z,7303.00
2023-05-02T12:25:56.732Z,14981.00
2023-05-02T12:26:56.164Z,9921.00
2023-05-02T12:27:55.196Z,8743.00
2023-05-02T12:28:56.181Z,7556.00
2023-05-02T12:29:54.601Z,6775.00
2023-05-02T12:30:56.227Z,6112.00
2023-05-02T12:31:54.657Z,8104.00
2023-05-02T12:32:55.790Z,11500.00
2023-05-02T12:33:54.557Z,9842.00
2023-05-02T12:34:55.788Z,9086.00
2023-05-02T12:35:56.820Z,8588.00
2023-05-02T12:36:56.332Z,8741.00
2023-05-02T12:37:54.505Z,3831.00
2023-05-02T12:38:55.873Z,25554.00
2023-05-02T12:39:54.469Z,16533.00
2023-05-02T12:40:55.933Z,9613.00
2023-05-02T12:41:54.446Z,7940.00
2023-05-02T12:42:56.440Z,8456.00
2023-05-02T12:43:54.736Z,7459.00
2023-05-02T12:44:55.976Z,6722.00
2023-05-02T12:46:05.100Z,6285.00
2023-05-02T12:46:54.407Z,4912.00
2023-05-02T12:47:54.513Z,7237.00
2023-05-02T12:48:54.711Z,9522.00
2023-05-02T12:49:54.679Z,8182.00
2023-05-02T12:50:56.570Z,7132.00
2023-05-02T12:51:54.382Z,7182.00
2023-05-02T12:52:55.586Z,7563.00
2023-05-02T12:53:54.313Z,8451.00
2023-05-02T13:00:28.951Z,6319.00
2023-05-02T13:01:38.184Z,5766.00
2023-05-02T13:02:36.825Z,6158.00
2023-05-02T13:03:36.526Z,7680.00
2023-05-02T13:04:36.448Z,6882.00
2023-05-02T13:05:48.462Z,8980.00
2023-05-02T13:06:36.463Z,6544.00
2023-05-02T13:07:37.679Z,17584.00
2023-05-02T13:08:36.737Z,4325.00
2023-05-02T13:09:38.217Z,25630.00
2023-05-02T13:10:37.838Z,11317.00
2023-05-02T13:11:36.965Z,9268.00
2023-05-02T13:12:36.373Z,9061.00
2023-05-02T13:13:36.659Z,8346.00
2023-05-02T13:14:37.791Z,7280.00
2023-05-02T13:23:21.346Z,5913.00
2023-05-02T13:24:29.203Z,5989.00
2023-05-02T13:29:54.317Z,6324.00
2023-05-02T13:31:01.859Z,5679.00
2023-05-02T13:32:03.391Z,7166.00
2023-05-02T13:33:02.268Z,7185.00
2023-05-02T13:34:01.811Z,7215.00
2023-05-02T13:35:03.958Z,6656.00
2023-05-02T13:36:01.795Z,6269.00
2023-05-02T13:37:01.810Z,6319.00
2023-05-02T13:38:02.066Z,6131.00
2023-05-02T13:39:01.762Z,5737.00
2023-05-02T13:40:03.373Z,5460.00
2023-05-02T13:41:03.118Z,5033.00
2023-05-02T13:42:03.750Z,5747.00
2023-05-02T13:43:01.692Z,4940.00
2023-05-02T13:44:03.593Z,4802.00
2023-05-02T13:45:03.634Z,4645.00
2023-05-02T13:46:01.756Z,4397.00
2023-05-02T13:47:01.999Z,4379.00
2023-05-02T13:48:02.072Z,4652.00
2023-05-02T13:49:03.157Z,4866.00
2023-05-02T13:50:03.057Z,4865.00
2023-05-02T13:51:01.633Z,4711.00
2023-05-02T13:52:03.217Z,4369.00
2023-05-02T13:53:03.260Z,3975.00
2023-05-02T13:54:02.090Z,3681.00
2023-05-02T13:55:02.765Z,3431.00
2023-05-02T13:56:02.199Z,2966.00
2023-05-02T13:57:03.281Z,2724.00
2023-05-02T13:58:03.289Z,2474.00
2023-05-02T13:59:01.550Z,2248.00
2023-05-02T14:00:04.147Z,2295.00
2023-05-02T14:01:03.008Z,2359.00
2023-05-02T14:02:03.471Z,2307.00
2023-05-02T14:03:01.536Z,2068.00
2023-05-02T14:04:03.037Z,1909.00
2023-05-02T14:05:01.469Z,1843.00
2023-05-02T14:06:03.027Z,1904.00
2023-05-02T14:07:01.516Z,1954.00
2023-05-02T14:08:01.504Z,2130.00
2023-05-02T14:09:03.016Z,2380.00
2023-05-02T14:10:01.714Z,2964.00
2023-05-02T14:11:01.398Z,3639.00
2023-05-02T14:12:01.402Z,4169.00
2023-05-02T14:13:03.068Z,4767.00
2023-05-02T14:14:01.375Z,2248.00
2023-05-02T14:15:05.639Z,11807.00
2023-05-02T14:16:02.637Z,9482.00
2023-05-02T14:17:03.576Z,6354.00
2023-05-02T14:18:01.667Z,4413.00
2023-05-02T14:19:01.621Z,13770.00
2023-05-02T14:20:03.428Z,12853.00
2023-05-02T14:23:12.584Z,6891.00
2023-05-02T14:24:19.231Z,3628.00
2023-05-02T14:25:18.726Z,13641.00
2023-05-02T14:26:17.432Z,7517.00
2023-05-02T14:27:17.421Z,7263.00
2023-05-02T14:28:19.297Z,7439.00
2023-05-02T14:29:18.000Z,7001.00
2023-05-02T14:32:39.452Z,4325.00
2023-05-02T14:33:47.235Z,4313.00
2023-05-02T14:34:47.214Z,4363.00
2023-05-02T14:38:08.330Z,3832.00
2023-05-02T14:39:17.304Z,3904.00
2023-05-02T14:40:26.530Z,3603.00
2023-05-02T14:41:17.895Z,3364.00
2023-05-02T14:42:17.384Z,3343.00
2023-05-02T14:43:17.381Z,1797.00
2023-05-02T14:44:15.831Z,6334.00
2023-05-02T14:45:17.420Z,5117.00
2023-05-02T14:46:17.435Z,7642.00
2023-05-02T14:47:18.100Z,12932.00
2023-05-02T14:48:17.099Z,8162.00
2023-05-02T14:49:17.473Z,6054.00
2023-05-02T14:50:17.018Z,6548.00
2023-05-02T14:51:16.044Z,5898.00
2023-05-02T14:52:17.534Z,5575.00
2023-05-02T14:53:17.575Z,5309.00
2023-05-02T14:54:16.005Z,5153.00
2023-05-02T15:15:26.538Z,4057.00
2023-05-02T15:16:31.081Z,3570.00
2023-05-02T15:17:30.763Z,4873.00
2023-05-02T15:18:30.786Z,3908.00
2023-05-02T15:19:32.872Z,4058.00
2023-05-02T15:20:36.175Z,3982.00
2023-05-02T15:21:32.505Z,4088.00
2023-05-02T15:22:31.016Z,3995.00
2023-05-02T15:23:30.968Z,3729.00
2023-05-02T15:24:32.458Z,3593.00
2023-05-02T15:25:32.505Z,3574.00
2023-05-02T15:26:30.623Z,1552.00
2023-05-02T15:27:30.958Z,8986.00
2023-05-02T15:28:32.033Z,3695.00
2023-05-02T15:29:30.904Z,4473.00
2023-05-02T15:35:09.461Z,3162.00
2023-05-02T15:36:12.345Z,2719.00
2023-05-02T15:37:12.902Z,1239.00
2023-05-02T15:38:11.301Z,2295.00
2023-05-02T15:39:11.311Z,9518.00
2023-05-02T15:41:21.552Z,3040.00
2023-05-02T15:42:29.708Z,2141.00
2023-05-02T15:43:30.648Z,2838.00
2023-05-02T15:44:29.061Z,1801.00
2023-05-02T15:45:30.670Z,10043.00
2023-05-02T15:46:29.133Z,9843.00
2023-05-02T15:47:29.015Z,4718.00
2023-05-02T15:48:29.378Z,3352.00
2023-05-02T15:49:29.043Z,2934.00
2023-05-02T15:51:29.606Z,3222.00
2023-05-02T15:52:37.769Z,3210.00
2023-05-02T15:53:37.125Z,1362.00
2023-05-02T15:54:38.634Z,8611.00
2023-05-02T15:55:39.670Z,3299.00
2023-05-02T15:56:38.679Z,3154.00
2023-05-02T15:57:37.372Z,2819.00
2023-05-02T15:58:37.389Z,1298.00
2023-05-02T15:59:39.225Z,5945.00
2023-05-02T16:00:39.570Z,5856.00
2023-05-02T16:01:37.384Z,7527.00
2023-05-02T16:02:40.327Z,5831.00
2023-05-02T16:03:37.144Z,6110.00
2023-05-02T16:04:38.421Z,1470.00
2023-05-02T16:05:43.782Z,5202.00
2023-05-02T16:06:39.362Z,5575.00
2023-05-02T16:07:37.570Z,5740.00
2023-05-02T16:08:38.382Z,5519.00
2023-05-02T16:09:36.959Z,5428.00
2023-05-02T16:10:40.292Z,5425.00
2023-05-02T16:11:38.446Z,5188.00
2023-05-02T16:12:37.219Z,4956.00
2023-05-02T16:13:36.882Z,4801.00
2023-05-02T16:14:38.475Z,5314.00
2023-05-02T17:14:15.862Z,1735.00
2023-05-02T17:15:15.426Z,1514.00
2023-05-02T17:16:17.565Z,1936.00
2023-05-02T17:17:15.406Z,1746.00
2023-05-02T17:18:15.988Z,1645.00
2023-05-02T17:21:23.894Z,1543.00
2023-05-02T17:22:31.669Z,1555.00
2023-05-02T17:23:34.361Z,1525.00
2023-05-02T17:24:32.868Z,1111.00
2023-05-02T17:25:32.884Z,558.00
2023-05-02T17:26:32.886Z,2418.00
2023-05-02T17:27:33.386Z,1982.00
2023-05-02T17:28:38.147Z,1014.00
2023-05-02T17:29:32.951Z,1800.00
2023-05-02T17:30:31.313Z,2008.00
2023-05-02T17:31:33.588Z,718.00
2023-05-02T17:32:31.335Z,1193.00
2023-05-02T17:33:34.081Z,2327.00
2023-05-02T17:34:30.916Z,1329.00
2023-05-02T17:35:31.287Z,721.00
2023-05-02T17:36:31.268Z,1592.00
2023-05-02T17:37:31.905Z,1650.00
2023-05-02T17:38:36.901Z,2261.00
2023-05-02T17:39:31.537Z,1141.00
2023-05-02T17:40:31.212Z,2070.00
2023-05-02T17:41:32.589Z,902.00
2023-05-02T17:42:31.204Z,1918.00
2023-05-02T17:43:38.122Z,629.00
2023-05-02T17:44:32.652Z,1104.00
2023-05-02T17:45:31.187Z,1465.00
2023-05-02T17:46:31.198Z,1578.00
2023-05-02T17:47:33.199Z,1621.00
2023-05-02T17:50:34.612Z,1194.00
2023-05-02T17:51:41.968Z,1199.00
2023-05-02T17:52:42.282Z,1204.00
2023-05-02T17:53:46.838Z,1183.00
2023-05-02T17:54:43.434Z,1153.00
2023-05-02T17:55:43.444Z,1133.00
2023-05-02T17:56:41.977Z,1082.00
2023-05-02T17:57:43.473Z,1113.00
2023-05-02T17:58:44.345Z,1045.00
2023-05-02T17:59:42.190Z,953.00
2023-05-02T18:00:43.537Z,976.00
2023-05-02T18:01:43.585Z,955.00
2023-05-02T18:02:44.643Z,923.00
2023-05-02T18:03:43.197Z,850.00
2023-05-02T18:04:44.765Z,878.00
2023-05-02T18:05:41.839Z,866.00
2023-05-02T18:06:42.157Z,820.00
2023-05-02T18:07:50.534Z,806.00
2023-05-02T18:08:43.164Z,788.00
2023-05-02T18:09:43.172Z,739.00
2023-05-02T18:10:41.792Z,734.00
2023-05-02T18:11:43.215Z,701.00
2023-05-02T18:12:44.239Z,680.00
2023-05-02T18:13:43.286Z,663.00
2023-05-02T18:14:43.280Z,665.00
2023-05-02T18:15:41.757Z,656.00
2023-05-02T18:16:41.949Z,606.00
2023-05-02T18:17:43.357Z,580.00
2023-05-02T18:18:44.352Z,562.00
2023-05-02T18:19:41.734Z,546.00
2023-05-02T18:20:42.886Z,533.00
2023-05-02T18:21:41.710Z,519.00
2023-05-02T18:22:41.666Z,497.00
2023-05-02T18:23:42.979Z,477.00
2023-05-02T18:24:41.687Z,465.00
2023-05-02T18:25:41.636Z,447.00
2023-05-02T18:26:41.662Z,438.00
2023-05-02T18:27:43.009Z,418.00
2023-05-02T18:28:44.577Z,410.00
2023-05-02T18:29:43.033Z,395.00
2023-05-02T18:30:43.092Z,381.00
2023-05-02T18:31:35.094Z,360.00
2023-05-02T18:32:41.601Z,343.00
2023-05-02T18:33:50.714Z,327.00
2023-05-02T18:34:43.095Z,306.00
2023-05-02T18:35:41.548Z,293.00
2023-05-02T18:36:41.506Z,281.00
2023-05-02T18:37:41.525Z,267.00
2023-05-02T18:38:43.169Z,252.00
2023-05-02T18:39:42.680Z,239.00
2023-05-02T18:40:41.473Z,227.00
2023-05-02T18:41:42.712Z,212.00
2023-05-02T18:42:41.452Z,194.00
2023-05-02T18:43:46.248Z,187.00
2023-05-02T18:44:42.774Z,174.00
2023-05-02T18:45:42.788Z,166.00
2023-05-02T18:46:42.897Z,154.00
2023-05-02T18:47:41.405Z,142.00
2023-05-02T18:48:46.081Z,132.00
2023-05-02T18:49:42.863Z,126.00
2023-05-02T18:50:41.352Z,115.00
2023-05-02T18:51:42.906Z,107.00
2023-05-02T18:52:42.939Z,93.00
2023-05-02T18:53:44.890Z,89.00
2023-05-02T18:54:42.955Z,85.00
2023-05-02T18:55:41.335Z,73.00
2023-05-02T18:56:41.310Z,74.00
2023-05-02T18:57:44.027Z,62.00
2023-05-02T18:58:42.560Z,56.00
2023-05-02T18:59:41.278Z,46.00
2023-05-02T19:00:43.596Z,39.00
2023-05-02T19:01:41.266Z,39.00
2023-05-02T19:02:41.293Z,36.00
2023-05-02T19:03:42.728Z,31.00
2023-05-02T19:04:41.211Z,23.00
2023-05-02T19:05:42.705Z,22.00
2023-05-02T19:06:42.836Z,25.00
2023-05-02T19:07:41.167Z,16.00
2023-05-02T19:08:49.602Z,19.00
2023-05-02T19:09:42.805Z,11.00
2023-05-02T19:10:41.133Z,14.00
2023-05-02T19:11:41.118Z,14.00
2023-05-02T19:12:43.877Z,6.00
2023-05-02T19:13:44.162Z,7.00
2023-05-02T19:14:41.118Z,5.00
2023-05-02T19:15:41.105Z,6.00
2023-05-02T19:16:41.157Z,3.00
2023-05-02T19:17:42.404Z,3.00
2023-05-02T19:18:42.907Z,2.00
2023-05-02T19:19:42.452Z,2.00
2023-05-02T19:20:42.430Z,2.00
2023-05-02T19:21:42.446Z,2.00
2023-05-02T19:22:42.466Z,2.00
2023-05-02T19:23:43.082Z,1.00
2023-05-02T19:24:34.457Z,1.00
2023-05-02T19:25:40.986Z,1.00
2023-05-02T19:26:42.516Z,0.00
2023-05-02T19:27:42.102Z,0.00
2023-05-02T19:28:42.049Z,0.00
2023-05-02T19:29:42.565Z,0.00
2023-05-02T19:30:40.965Z,0.00
2023-05-02T19:31:42.632Z,0.00
2023-05-02T19:32:34.421Z,0.00
2023-05-02T19:33:43.602Z,0.00
2023-05-02T19:34:40.935Z,0.00
2023-05-02T19:35:40.901Z,0.00
2023-05-02T19:36:40.944Z,0.00
2023-05-02T19:37:42.167Z,0.00
2023-05-02T19:38:53.840Z,0.00
2023-05-02T19:40:48.261Z,0.00
2023-05-02T19:41:45.940Z,0.00
2023-05-02T19:42:52.438Z,0.00
2023-05-02T19:43:53.516Z,0.00
2023-05-02T19:44:45.905Z,0.00
2023-05-02T19:45:52.484Z,0.00
2023-05-02T19:46:52.411Z,0.00
2023-05-02T19:47:52.504Z,0.00
2023-05-02T19:48:53.584Z,0.00
2023-05-02T19:49:53.404Z,0.00
2023-05-02T19:50:53.614Z,0.00
2023-05-02T19:51:52.404Z,0.00
2023-05-02T19:52:53.657Z,0.00
2023-05-02T19:53:56.244Z,0.00
2023-05-02T19:54:52.386Z,0.00
2023-05-02T19:55:53.695Z,0.00
2023-05-02T19:56:52.346Z,0.00
2023-05-02T19:57:53.767Z,0.00
2023-05-02T19:58:53.780Z,0.00
2023-05-02T19:59:52.292Z,0.00
2023-05-02T20:00:52.356Z,0.00
2023-05-02T20:01:53.782Z,0.00
2023-05-02T20:02:52.350Z,0.00
2023-05-02T20:03:52.347Z,0.00
2023-05-02T20:04:53.839Z,0.00
2023-05-02T20:05:52.244Z,0.00
2023-05-02T20:06:52.301Z,0.00
2023-05-02T20:07:53.880Z,0.00
2023-05-02T20:08:53.402Z,0.00
2023-05-02T20:09:53.409Z,0.00
2023-05-02T20:10:52.164Z,0.00
2023-05-02T20:11:53.441Z,0.00
2023-05-02T20:12:53.457Z,0.00
2023-05-02T20:13:53.478Z,0.00
2023-05-02T20:14:53.967Z,0.00
2023-05-02T20:15:52.118Z,0.00
2023-05-02T20:16:53.508Z,0.00
2023-05-02T20:17:53.560Z,0.00
2023-05-02T20:18:57.867Z,0.00
2023-05-02T20:19:53.561Z,0.00
2023-05-02T20:20:52.288Z,0.00
2023-05-02T20:21:52.097Z,0.00
2023-05-02T20:22:52.065Z,0.00
2023-05-02T20:23:53.637Z,0.00
2023-05-02T20:24:52.084Z,0.00
2023-05-02T20:25:52.018Z,0.00
2023-05-02T20:26:51.986Z,0.00
2023-05-02T20:27:52.005Z,0.00
2023-05-02T20:28:53.211Z,0.00
2023-05-02T20:29:51.976Z,0.00
2023-05-02T20:30:51.972Z,0.00
2023-05-02T20:31:54.489Z,0.00